createdAt,value
2022-10-18T00:00:11.198Z,12.56
2022-10-18T00:03:14.085Z,12.62
2022-10-18T00:06:16.810Z,12.67
2022-10-18T00:09:19.744Z,12.59
2022-10-18T00:12:22.378Z,12.40
2022-10-18T00:15:25.290Z,12.23
2022-10-18T00:18:28.674Z,12.39
2022-10-18T00:21:31.700Z,12.44
2022-10-18T00:24:34.316Z,12.41
2022-10-18T00:27:37.223Z,12.40
2022-10-18T00:30:39.899Z,12.38
2022-10-18T00:33:44.672Z,12.40
2022-10-18T00:36:48.366Z,12.38
2022-10-18T00:42:58.795Z,11.86
2022-10-18T00:46:04.067Z,11.82
2022-10-18T00:49:27.679Z,11.75
2022-10-18T00:52:57.039Z,11.00
2022-10-18T00:55:59.723Z,10.99
2022-10-18T00:59:03.432Z,10.84
2022-10-18T01:02:07.221Z,10.78
2022-10-18T01:05:12.961Z,10.75
2022-10-18T01:08:50.380Z,10.77
2022-10-18T01:12:33.182Z,10.70
2022-10-18T01:15:47.949Z,10.87
2022-10-18T01:18:57.221Z,11.02
2022-10-18T01:22:07.762Z,10.93
2022-10-18T01:25:26.377Z,10.86
2022-10-18T01:28:53.958Z,10.91
2022-10-18T01:32:07.529Z,10.86
2022-10-18T01:35:18.271Z,10.89
2022-10-18T01:38:24.038Z,10.86
2022-10-18T01:41:28.612Z,10.79
2022-10-18T01:44:33.683Z,10.71
2022-10-18T01:47:38.602Z,10.64
2022-10-18T01:50:42.201Z,10.59
2022-10-18T01:53:44.863Z,10.51
2022-10-18T01:56:50.487Z,10.52
2022-10-18T02:00:12.844Z,10.50
2022-10-18T02:03:24.486Z,10.52
2022-10-18T02:06:32.635Z,10.26
2022-10-18T02:09:43.150Z,10.21
2022-10-18T02:12:48.758Z,10.08
2022-10-18T02:15:59.654Z,10.21
2022-10-18T02:19:28.570Z,10.37
2022-10-18T02:22:33.966Z,10.47
2022-10-18T02:25:37.443Z,10.40
2022-10-18T02:28:43.692Z,10.31
2022-10-18T02:31:49.385Z,10.33
2022-10-18T02:35:18.664Z,10.49
2022-10-18T02:38:26.920Z,10.44
2022-10-18T02:41:31.392Z,10.26
2022-10-18T02:44:38.336Z,10.08
2022-10-18T02:47:41.415Z,10.02
2022-10-18T02:50:44.041Z,10.01
2022-10-18T02:53:46.932Z,9.92
2022-10-18T02:56:49.845Z,9.84
2022-10-18T02:59:52.760Z,9.88
2022-10-18T03:02:55.450Z,9.77
2022-10-18T03:05:58.399Z,9.82
2022-10-18T03:09:06.093Z,9.84
2022-10-18T03:12:09.184Z,9.80
2022-10-18T03:15:11.801Z,9.62
2022-10-18T03:18:15.615Z,9.59
2022-10-18T03:21:18.616Z,9.52
2022-10-18T03:24:21.455Z,9.34
2022-10-18T03:27:24.804Z,9.50
2022-10-18T03:30:27.812Z,9.53
2022-10-18T03:33:31.898Z,9.38
2022-10-18T03:36:34.956Z,9.35
2022-10-18T03:39:37.515Z,9.25
2022-10-18T03:42:40.488Z,9.27
2022-10-18T03:45:43.063Z,9.37
2022-10-18T03:48:45.980Z,9.35
2022-10-18T03:51:48.535Z,9.35
2022-10-18T03:54:53.962Z,9.33
2022-10-18T03:57:56.607Z,9.32
2022-10-18T04:01:00.830Z,9.28
2022-10-18T04:04:05.086Z,9.24
2022-10-18T04:07:07.749Z,9.01
2022-10-18T04:10:10.795Z,9.06
2022-10-18T04:13:13.798Z,9.05
2022-10-18T04:16:16.675Z,9.04
2022-10-18T04:19:19.340Z,9.11
2022-10-18T04:22:22.251Z,8.89
2022-10-18T04:25:25.330Z,8.71
2022-10-18T04:28:28.250Z,8.67
2022-10-18T04:31:31.813Z,8.73
2022-10-18T04:34:34.756Z,8.70
2022-10-18T04:37:37.437Z,8.59
2022-10-18T04:40:40.564Z,8.57
2022-10-18T04:43:43.248Z,8.59
2022-10-18T04:46:46.385Z,8.56
2022-10-18T04:49:48.987Z,8.64
2022-10-18T04:52:53.727Z,8.59
2022-10-18T04:55:56.747Z,8.50
2022-10-18T04:59:00.046Z,8.57
2022-10-18T05:05:14.016Z,8.63
2022-10-18T05:08:16.990Z,8.68
2022-10-18T05:11:19.921Z,8.51
2022-10-18T05:14:22.651Z,8.43
2022-10-18T05:17:25.540Z,8.43
2022-10-18T05:20:28.188Z,8.35
2022-10-18T05:23:31.055Z,8.35
2022-10-18T05:26:33.662Z,8.29
2022-10-18T05:29:36.793Z,8.23
2022-10-18T05:32:39.319Z,8.18
2022-10-18T05:35:42.905Z,8.01
2022-10-18T05:38:45.717Z,8.11
2022-10-18T05:41:48.659Z,8.16
2022-10-18T05:44:51.273Z,8.05
2022-10-18T05:47:54.744Z,8.01
2022-10-18T05:51:01.154Z,7.99
2022-10-18T05:54:04.252Z,7.99
2022-10-18T05:57:06.794Z,7.94
2022-10-18T06:00:10.607Z,8.47
2022-10-18T06:03:14.163Z,8.76
2022-10-18T06:06:17.331Z,8.86
2022-10-18T06:09:23.920Z,9.50
2022-10-18T06:12:27.032Z,9.48
2022-10-18T06:15:29.914Z,9.48
2022-10-18T06:18:32.808Z,9.95
2022-10-18T06:21:35.411Z,9.98
2022-10-18T06:24:38.704Z,9.80
2022-10-18T06:27:42.357Z,9.68
2022-10-18T06:30:45.537Z,9.65
2022-10-18T06:33:50.790Z,9.65
2022-10-18T06:36:56.416Z,9.72
2022-10-18T06:40:02.766Z,9.83
2022-10-18T06:43:20.763Z,9.95
2022-10-18T06:46:24.504Z,10.12
2022-10-18T06:49:27.478Z,10.23
2022-10-18T06:52:30.285Z,10.37
2022-10-18T06:55:33.468Z,10.60
2022-10-18T06:58:36.746Z,10.76
2022-10-18T07:01:39.669Z,11.01
2022-10-18T07:04:42.439Z,11.09
2022-10-18T07:07:45.392Z,11.39
2022-10-18T07:10:53.412Z,11.56
2022-10-18T07:14:03.224Z,11.77
2022-10-18T07:17:06.880Z,11.98
2022-10-18T07:20:10.313Z,12.20
2022-10-18T07:23:12.879Z,12.43
2022-10-18T07:26:20.348Z,12.57
2022-10-18T07:29:23.036Z,12.75
2022-10-18T07:32:25.964Z,12.99
2022-10-18T07:35:28.602Z,13.19
2022-10-18T07:38:32.113Z,13.41
2022-10-18T07:41:35.572Z,13.59
2022-10-18T07:44:39.926Z,13.94
2022-10-18T07:47:42.534Z,14.56
2022-10-18T07:50:45.612Z,14.98
2022-10-18T07:53:48.665Z,15.33
2022-10-18T07:56:51.600Z,15.71
2022-10-18T07:59:57.063Z,15.95
2022-10-18T08:03:00.195Z,16.15
2022-10-18T08:06:06.371Z,16.35
2022-10-18T08:09:08.968Z,16.59
2022-10-18T08:12:11.903Z,16.78
2022-10-18T08:15:14.930Z,16.90
2022-10-18T08:18:17.848Z,17.02
2022-10-18T08:21:21.735Z,17.23
2022-10-18T08:24:24.688Z,17.43
2022-10-18T08:27:30.513Z,17.49
2022-10-18T08:30:34.896Z,17.73
2022-10-18T08:33:38.749Z,17.82
2022-10-18T08:36:41.650Z,18.35
2022-10-18T08:39:44.575Z,19.09
2022-10-18T08:43:21.414Z,20.39
2022-10-18T08:46:25.425Z,21.59
2022-10-18T08:49:46.848Z,22.46
2022-10-18T08:53:17.850Z,22.39
2022-10-18T08:56:24.285Z,23.31
2022-10-18T08:59:37.552Z,23.22
2022-10-18T09:03:25.754Z,24.20
2022-10-18T09:06:47.125Z,23.31
2022-10-18T09:10:19.575Z,22.90
2022-10-18T09:13:57.189Z,23.32
2022-10-18T09:17:13.670Z,24.25
2022-10-18T09:20:23.440Z,25.25
2022-10-18T09:23:48.916Z,24.50
2022-10-18T09:26:58.972Z,24.60
2022-10-18T09:30:14.514Z,24.82
2022-10-18T09:33:40.802Z,24.61
2022-10-18T09:36:45.821Z,24.21
2022-10-18T09:39:50.922Z,24.02
2022-10-18T09:43:18.101Z,24.29
2022-10-18T09:46:24.136Z,24.62
2022-10-18T09:49:36.953Z,24.05
2022-10-18T09:52:52.079Z,23.89
2022-10-18T09:56:06.816Z,24.28
2022-10-18T09:59:33.539Z,24.90
2022-10-18T10:02:36.767Z,24.53
2022-10-18T10:05:39.687Z,24.80
2022-10-18T10:08:53.645Z,25.54
2022-10-18T10:11:57.803Z,25.22
2022-10-18T10:15:09.727Z,25.23
2022-10-18T10:18:21.953Z,25.52
2022-10-18T10:21:24.961Z,25.86
2022-10-18T10:25:03.049Z,24.52
2022-10-18T10:28:14.283Z,25.46
2022-10-18T10:31:28.868Z,24.82
2022-10-18T10:34:31.961Z,25.21
2022-10-18T10:37:37.933Z,25.50
2022-10-18T10:40:50.587Z,24.10
2022-10-18T10:43:55.276Z,25.46
2022-10-18T10:46:58.487Z,25.94
2022-10-18T10:50:12.294Z,26.55
2022-10-18T10:53:30.880Z,24.51
2022-10-18T10:56:37.935Z,25.36
2022-10-18T10:59:45.482Z,25.47
2022-10-18T11:02:59.300Z,25.87
2022-10-18T11:06:31.956Z,24.53
2022-10-18T11:09:56.515Z,26.25
2022-10-18T11:13:25.064Z,27.22
2022-10-18T11:16:40.054Z,26.33
2022-10-18T11:20:05.899Z,26.91
2022-10-18T11:23:15.545Z,26.98
2022-10-18T11:26:30.363Z,27.68
2022-10-18T11:29:42.868Z,26.13
2022-10-18T11:33:17.171Z,26.76
2022-10-18T11:36:49.471Z,26.69
2022-10-18T11:40:35.724Z,25.20
2022-10-18T11:44:03.523Z,26.83
2022-10-18T11:47:16.189Z,25.90
2022-10-18T11:50:21.724Z,26.38
2022-10-18T11:53:38.288Z,26.07
2022-10-18T11:57:02.669Z,26.61
2022-10-18T12:00:22.015Z,25.95
2022-10-18T12:03:29.578Z,25.43
2022-10-18T12:06:37.681Z,25.18
2022-10-18T12:09:43.901Z,25.74
2022-10-18T12:13:01.495Z,27.51
2022-10-18T12:16:07.087Z,26.69
2022-10-18T12:19:26.304Z,27.64
2022-10-18T12:22:39.959Z,26.63
2022-10-18T12:25:49.406Z,26.94
2022-10-18T12:29:27.532Z,27.37
2022-10-18T12:32:35.131Z,26.95
2022-10-18T12:35:50.391Z,26.98
2022-10-18T12:39:02.883Z,27.03
2022-10-18T12:42:06.050Z,27.68
2022-10-18T12:45:27.076Z,27.20
2022-10-18T12:48:34.159Z,27.72
2022-10-18T12:51:50.616Z,26.80
2022-10-18T12:55:18.377Z,26.50
2022-10-18T12:58:20.907Z,27.05
2022-10-18T13:01:25.445Z,26.70
2022-10-18T13:04:28.285Z,26.91
2022-10-18T13:07:33.667Z,27.34
2022-10-18T13:10:38.361Z,27.04
2022-10-18T13:14:08.466Z,27.02
2022-10-18T13:17:20.954Z,26.36
2022-10-18T13:20:40.893Z,25.84
2022-10-18T13:24:09.833Z,25.19
2022-10-18T13:27:35.948Z,24.31
2022-10-18T13:30:48.341Z,24.06
2022-10-18T13:33:51.817Z,22.82
2022-10-18T13:37:24.005Z,21.96
2022-10-18T13:40:27.136Z,21.98
2022-10-18T13:43:54.944Z,21.97
2022-10-18T13:46:57.915Z,21.60
2022-10-18T13:50:31.807Z,21.50
2022-10-18T13:53:52.017Z,21.29
2022-10-18T13:57:06.454Z,21.18
2022-10-18T14:00:15.122Z,21.10
2022-10-18T14:03:57.662Z,21.03
2022-10-18T14:07:02.712Z,20.98
2022-10-18T14:10:20.440Z,20.88
2022-10-18T14:13:33.991Z,20.84
2022-10-18T14:16:51.832Z,20.78
2022-10-18T14:20:03.491Z,20.67
2022-10-18T14:23:16.093Z,20.62
2022-10-18T14:26:20.851Z,20.59
2022-10-18T14:29:23.856Z,20.57
2022-10-18T14:32:30.019Z,20.52
2022-10-18T14:35:35.867Z,20.49
2022-10-18T14:39:01.686Z,20.38
2022-10-18T14:42:04.731Z,20.35
2022-10-18T14:45:18.941Z,20.29
2022-10-18T14:48:23.881Z,20.24
2022-10-18T14:51:30.308Z,20.21
2022-10-18T14:54:36.711Z,20.17
2022-10-18T14:57:39.426Z,20.08
2022-10-18T15:00:45.127Z,19.97
2022-10-18T15:03:50.959Z,19.89
2022-10-18T15:06:54.815Z,19.79
2022-10-18T15:09:59.619Z,19.68
2022-10-18T15:13:10.085Z,19.59
2022-10-18T15:16:22.853Z,19.52
2022-10-18T15:19:32.503Z,19.47
2022-10-18T15:22:35.142Z,19.29
2022-10-18T15:25:38.113Z,19.24
2022-10-18T15:28:51.267Z,19.15
2022-10-18T15:31:54.955Z,19.03
2022-10-18T15:35:20.994Z,18.82
2022-10-18T15:38:28.732Z,18.65
2022-10-18T15:42:01.878Z,18.51
2022-10-18T15:45:25.908Z,18.35
2022-10-18T15:48:47.517Z,18.18
2022-10-18T15:52:11.634Z,18.01
2022-10-18T15:55:29.612Z,17.87
2022-10-18T15:58:39.333Z,17.68
2022-10-18T16:01:45.092Z,17.48
2022-10-18T16:04:48.197Z,17.33
2022-10-18T16:07:54.226Z,17.17
2022-10-18T16:10:59.037Z,16.93
2022-10-18T16:14:01.724Z,16.79
2022-10-18T16:17:07.027Z,16.70
2022-10-18T16:20:24.664Z,16.58
2022-10-18T16:23:31.483Z,16.54
2022-10-18T16:26:35.037Z,16.37
2022-10-18T16:29:37.978Z,16.25
2022-10-18T16:32:41.009Z,16.27
2022-10-18T16:35:44.031Z,16.30
2022-10-18T16:38:47.672Z,16.15
2022-10-18T16:41:51.504Z,16.12
2022-10-18T16:44:55.197Z,16.03
2022-10-18T16:47:58.114Z,15.90
2022-10-18T16:51:01.806Z,15.73
2022-10-18T16:54:05.648Z,15.47
2022-10-18T16:57:12.701Z,15.43
2022-10-18T17:00:21.127Z,15.42
2022-10-18T17:03:24.731Z,15.41
2022-10-18T17:06:31.253Z,15.35
2022-10-18T17:09:36.015Z,15.16
2022-10-18T17:12:39.318Z,14.83
2022-10-18T17:15:42.766Z,14.76
2022-10-18T17:18:46.120Z,14.66
2022-10-18T17:21:48.839Z,14.83
2022-10-18T17:24:53.146Z,14.83
2022-10-18T17:27:56.989Z,14.74
2022-10-18T17:31:00.559Z,14.63
2022-10-18T17:34:03.780Z,14.64
2022-10-18T17:37:08.527Z,14.34
2022-10-18T17:40:13.240Z,14.20
2022-10-18T17:43:16.779Z,14.05
2022-10-18T17:46:20.365Z,14.08
2022-10-18T17:49:23.724Z,14.12
2022-10-18T17:52:27.158Z,14.03
2022-10-18T17:55:30.689Z,13.97
2022-10-18T17:58:33.807Z,13.84
2022-10-18T18:01:38.041Z,13.71
2022-10-18T18:04:41.699Z,13.70
2022-10-18T18:07:48.095Z,13.62
2022-10-18T18:10:55.963Z,13.48
2022-10-18T18:14:00.000Z,13.51
2022-10-18T18:17:03.401Z,13.42
2022-10-18T18:20:07.338Z,13.29
2022-10-18T18:23:10.849Z,13.20
2022-10-18T18:26:14.198Z,13.14
2022-10-18T18:29:17.677Z,12.95
2022-10-18T18:32:22.367Z,12.98
2022-10-18T18:35:25.856Z,12.95
2022-10-18T18:38:28.970Z,12.86
2022-10-18T18:41:32.877Z,12.81
2022-10-18T18:44:36.044Z,12.88
2022-10-18T18:47:42.555Z,12.77
2022-10-18T18:50:51.179Z,12.76
2022-10-18T18:53:55.747Z,12.66
2022-10-18T18:56:59.561Z,12.67
2022-10-18T19:00:03.429Z,12.56
2022-10-18T19:03:06.117Z,12.53
2022-10-18T19:06:19.809Z,12.27
2022-10-18T19:09:23.932Z,11.96
2022-10-18T19:12:27.633Z,11.89
2022-10-18T19:15:30.752Z,12.05
2022-10-18T19:18:34.134Z,12.05
2022-10-18T19:21:53.063Z,12.11
2022-10-18T19:24:58.098Z,12.20
2022-10-18T19:28:01.280Z,12.08
2022-10-18T19:31:04.645Z,12.15
2022-10-18T19:34:11.050Z,12.17
2022-10-18T19:37:15.873Z,12.06
2022-10-18T19:40:20.411Z,11.87
2022-10-18T19:43:23.995Z,11.95
2022-10-18T19:46:28.432Z,12.04
2022-10-18T19:49:32.158Z,12.02
2022-10-18T19:52:35.613Z,12.07
2022-10-18T19:55:39.198Z,12.10
2022-10-18T19:58:41.828Z,11.94
2022-10-18T20:01:45.644Z,11.76
2022-10-18T20:04:48.934Z,11.80
2022-10-18T20:07:51.946Z,11.71
2022-10-18T20:10:55.549Z,11.61
2022-10-18T20:14:00.453Z,11.76
2022-10-18T20:17:06.315Z,11.75
2022-10-18T20:20:09.561Z,11.78
2022-10-18T20:23:12.604Z,11.78
2022-10-18T20:26:20.843Z,11.65
2022-10-18T20:29:25.561Z,11.80
2022-10-18T20:32:28.168Z,11.57
2022-10-18T20:35:32.309Z,11.60
2022-10-18T20:38:36.516Z,11.56
2022-10-18T20:41:43.129Z,11.51
2022-10-18T20:44:47.236Z,11.17
2022-10-18T20:47:50.178Z,11.32
2022-10-18T20:50:52.909Z,11.32
2022-10-18T20:53:56.133Z,11.25
2022-10-18T20:56:58.718Z,11.01
2022-10-18T21:00:01.682Z,11.00
2022-10-18T21:03:04.457Z,11.09
2022-10-18T21:06:14.679Z,11.18
2022-10-18T21:09:19.598Z,11.25
2022-10-18T21:12:22.940Z,11.21
2022-10-18T21:15:26.631Z,11.26
2022-10-18T21:18:32.709Z,11.29
2022-10-18T21:21:36.327Z,11.31
2022-10-18T21:24:39.299Z,11.38
2022-10-18T21:27:42.041Z,11.55
2022-10-18T21:30:44.931Z,11.46
2022-10-18T21:33:48.593Z,11.52
2022-10-18T21:36:51.534Z,11.56
2022-10-18T21:39:54.076Z,11.52
2022-10-18T21:42:57.528Z,11.62
2022-10-18T21:46:00.516Z,11.67
2022-10-18T21:49:05.635Z,11.64
2022-10-18T21:52:08.214Z,11.61
2022-10-18T21:55:11.217Z,11.28
2022-10-18T21:58:14.059Z,11.48
2022-10-18T22:01:29.090Z,11.44
2022-10-18T22:04:35.894Z,11.50
2022-10-18T22:07:41.079Z,11.42
2022-10-18T22:10:44.001Z,11.45
2022-10-18T22:13:47.115Z,11.48
2022-10-18T22:16:50.981Z,11.49
2022-10-18T22:19:53.973Z,11.53
2022-10-18T22:22:59.720Z,11.58
2022-10-18T22:26:12.128Z,11.60
2022-10-18T22:29:19.777Z,11.72
2022-10-18T22:32:22.352Z,11.69
2022-10-18T22:35:25.335Z,11.85
2022-10-18T22:38:32.343Z,11.74
2022-10-18T22:41:36.159Z,11.69
2022-10-18T22:44:38.982Z,11.84
2022-10-18T22:47:41.859Z,11.71
2022-10-18T22:50:44.619Z,11.68
2022-10-18T22:53:47.628Z,11.54
2022-10-18T22:56:50.499Z,11.58
2022-10-18T22:59:53.511Z,11.51
2022-10-18T23:02:56.201Z,11.49
2022-10-18T23:05:59.364Z,11.48
2022-10-18T23:09:05.408Z,11.43
2022-10-18T23:12:08.632Z,11.62
2022-10-18T23:15:11.883Z,11.41
2022-10-18T23:18:14.836Z,11.27
2022-10-18T23:21:19.546Z,11.14
2022-10-18T23:24:22.532Z,11.23
2022-10-18T23:27:25.130Z,11.23
2022-10-18T23:30:28.183Z,11.05
2022-10-18T23:33:30.788Z,11.05
2022-10-18T23:36:35.508Z,11.08
2022-10-18T23:39:39.005Z,10.94
2022-10-18T23:42:41.880Z,10.90
2022-10-18T23:48:52.539Z,10.83
2022-10-18T23:51:55.393Z,11.05
2022-10-18T23:54:58.307Z,10.95
2022-10-18T23:58:01.410Z,10.88
